sensor_id;sensor_type;location;lat;lon;timestamp;P1;durP1;ratioP1;P2;durP2;ratioP2
22282;SDS011;11310;51.528;21.204;2022-08-01T00:00:16;3.42;;;2.30;;
22282;SDS011;11310;51.528;21.204;2022-08-01T00:02:45;3.05;;;1.63;;
22282;SDS011;11310;51.528;21.204;2022-08-01T00:05:14;3.17;;;1.80;;
22282;SDS011;11310;51.528;21.204;2022-08-01T00:07:44;2.45;;;1.77;;
22282;SDS011;11310;51.528;21.204;2022-08-01T00:10:15;4.68;;;1.92;;
22282;SDS011;11310;51.528;21.204;2022-08-01T00:12:44;3.30;;;1.70;;
22282;SDS011;11310;51.528;21.204;2022-08-01T00:15:16;5.45;;;2.17;;
22282;SDS011;11310;51.528;21.204;2022-08-01T00:17:45;4.13;;;2.03;;
22282;SDS011;11310;51.528;21.204;2022-08-01T00:20:14;4.10;;;1.75;;
22282;SDS011;11310;51.528;21.204;2022-08-01T00:22:43;4.72;;;1.70;;
22282;SDS011;11310;51.528;21.204;2022-08-01T00:25:12;5.00;;;2.65;;
22282;SDS011;11310;51.528;21.204;2022-08-01T00:27:42;4.00;;;1.80;;
22282;SDS011;11310;51.528;21.204;2022-08-01T00:30:13;5.10;;;1.85;;
22282;SDS011;11310;51.528;21.204;2022-08-01T00:32:43;4.13;;;1.88;;
22282;SDS011;11310;51.528;21.204;2022-08-01T00:35:13;2.92;;;1.70;;
22282;SDS011;11310;51.528;21.204;2022-08-01T00:37:43;4.30;;;1.80;;
22282;SDS011;11310;51.528;21.204;2022-08-01T00:40:12;4.03;;;1.85;;
22282;SDS011;11310;51.528;21.204;2022-08-01T00:42:40;2.72;;;1.67;;
22282;SDS011;11310;51.528;21.204;2022-08-01T00:45:09;4.18;;;1.92;;
22282;SDS011;11310;51.528;21.204;2022-08-01T00:47:40;4.45;;;1.67;;
22282;SDS011;11310;51.528;21.204;2022-08-01T00:50:10;4.85;;;1.67;;
22282;SDS011;11310;51.528;21.204;2022-08-01T00:52:39;3.00;;;1.85;;
22282;SDS011;11310;51.528;21.204;2022-08-01T00:55:17;3.45;;;1.63;;
22282;SDS011;11310;51.528;21.204;2022-08-01T00:57:47;3.78;;;1.92;;
22282;SDS011;11310;51.528;21.204;2022-08-01T01:00:34;5.10;;;1.80;;
22282;SDS011;11310;51.528;21.204;2022-08-01T01:03:21;5.10;;;2.05;;
22282;SDS011;11310;51.528;21.204;2022-08-01T01:06:18;3.90;;;1.90;;
22282;SDS011;11310;51.528;21.204;2022-08-01T01:09:00;7.20;;;2.10;;
22282;SDS011;11310;51.528;21.204;2022-08-01T01:11:42;3.85;;;1.95;;
22282;SDS011;11310;51.528;21.204;2022-08-01T01:14:19;3.63;;;2.13;;
22282;SDS011;11310;51.528;21.204;2022-08-01T01:16:55;3.13;;;2.00;;
22282;SDS011;11310;51.528;21.204;2022-08-01T01:19:28;8.98;;;2.15;;
22282;SDS011;11310;51.528;21.204;2022-08-01T01:25:17;5.47;;;1.83;;
22282;SDS011;11310;51.528;21.204;2022-08-01T01:27:57;3.45;;;1.98;;
22282;SDS011;11310;51.528;21.204;2022-08-01T01:30:34;4.90;;;1.75;;
22282;SDS011;11310;51.528;21.204;2022-08-01T01:33:06;4.05;;;1.95;;
22282;SDS011;11310;51.528;21.204;2022-08-01T01:38:10;6.90;;;3.05;;
22282;SDS011;11310;51.528;21.204;2022-08-01T01:40:45;3.38;;;1.73;;
22282;SDS011;11310;51.528;21.204;2022-08-01T01:43:15;3.75;;;2.00;;
22282;SDS011;11310;51.528;21.204;2022-08-01T01:45:56;6.15;;;2.00;;
22282;SDS011;11310;51.528;21.204;2022-08-01T01:48:25;6.63;;;2.40;;
22282;SDS011;11310;51.528;21.204;2022-08-01T01:50:56;3.75;;;1.70;;
22282;SDS011;11310;51.528;21.204;2022-08-01T01:53:27;5.22;;;1.92;;
22282;SDS011;11310;51.528;21.204;2022-08-01T01:55:57;5.03;;;1.95;;
22282;SDS011;11310;51.528;21.204;2022-08-01T01:58:29;3.25;;;1.90;;
22282;SDS011;11310;51.528;21.204;2022-08-01T02:01:02;3.35;;;1.83;;
22282;SDS011;11310;51.528;21.204;2022-08-01T02:03:40;3.97;;;1.92;;
22282;SDS011;11310;51.528;21.204;2022-08-01T02:06:11;5.60;;;1.65;;
22282;SDS011;11310;51.528;21.204;2022-08-01T02:08:42;3.75;;;1.90;;
22282;SDS011;11310;51.528;21.204;2022-08-01T02:11:13;3.25;;;1.85;;
22282;SDS011;11310;51.528;21.204;2022-08-01T02:13:52;6.93;;;2.10;;
22282;SDS011;11310;51.528;21.204;2022-08-01T02:16:27;3.25;;;1.85;;
22282;SDS011;11310;51.528;21.204;2022-08-01T02:18:59;6.00;;;1.77;;
22282;SDS011;11310;51.528;21.204;2022-08-01T02:21:29;2.60;;;1.83;;
22282;SDS011;11310;51.528;21.204;2022-08-01T02:24:01;6.00;;;2.08;;
22282;SDS011;11310;51.528;21.204;2022-08-01T02:26:36;2.50;;;1.67;;
22282;SDS011;11310;51.528;21.204;2022-08-01T02:29:10;5.32;;;2.20;;
22282;SDS011;11310;51.528;21.204;2022-08-01T02:31:47;5.43;;;2.47;;
22282;SDS011;11310;51.528;21.204;2022-08-01T02:34:19;3.15;;;2.05;;
22282;SDS011;11310;51.528;21.204;2022-08-01T02:36:49;3.42;;;2.10;;
22282;SDS011;11310;51.528;21.204;2022-08-01T02:41:52;5.30;;;2.05;;
22282;SDS011;11310;51.528;21.204;2022-08-01T02:44:27;3.72;;;1.75;;
22282;SDS011;11310;51.528;21.204;2022-08-01T02:47:01;5.10;;;1.95;;
22282;SDS011;11310;51.528;21.204;2022-08-01T02:52:03;3.95;;;1.88;;
22282;SDS011;11310;51.528;21.204;2022-08-01T02:54:36;4.95;;;2.22;;
22282;SDS011;11310;51.528;21.204;2022-08-01T02:57:06;4.60;;;2.25;;
22282;SDS011;11310;51.528;21.204;2022-08-01T02:59:40;4.75;;;2.22;;
22282;SDS011;11310;51.528;21.204;2022-08-01T03:02:12;3.73;;;2.00;;
22282;SDS011;11310;51.528;21.204;2022-08-01T03:04:43;3.33;;;1.92;;
22282;SDS011;11310;51.528;21.204;2022-08-01T03:07:13;5.30;;;2.03;;
22282;SDS011;11310;51.528;21.204;2022-08-01T03:09:45;3.50;;;1.70;;
22282;SDS011;11310;51.528;21.204;2022-08-01T03:12:16;2.85;;;1.60;;
22282;SDS011;11310;51.528;21.204;2022-08-01T03:14:47;5.10;;;2.10;;
22282;SDS011;11310;51.528;21.204;2022-08-01T03:17:20;3.67;;;1.80;;
22282;SDS011;11310;51.528;21.204;2022-08-01T03:19:51;3.33;;;2.08;;
22282;SDS011;11310;51.528;21.204;2022-08-01T03:22:22;3.58;;;1.85;;
22282;SDS011;11310;51.528;21.204;2022-08-01T03:24:54;6.05;;;1.90;;
22282;SDS011;11310;51.528;21.204;2022-08-01T03:29:56;4.70;;;1.75;;
22282;SDS011;11310;51.528;21.204;2022-08-01T03:32:28;5.25;;;2.08;;
22282;SDS011;11310;51.528;21.204;2022-08-01T03:37:27;6.60;;;1.77;;
22282;SDS011;11310;51.528;21.204;2022-08-01T03:40:04;3.28;;;2.03;;
22282;SDS011;11310;51.528;21.204;2022-08-01T03:42:37;7.53;;;2.10;;
22282;SDS011;11310;51.528;21.204;2022-08-01T03:45:15;4.00;;;1.73;;
22282;SDS011;11310;51.528;21.204;2022-08-01T03:47:52;4.47;;;2.10;;
22282;SDS011;11310;51.528;21.204;2022-08-01T03:50:25;4.55;;;1.50;;
22282;SDS011;11310;51.528;21.204;2022-08-01T03:52:57;3.95;;;1.88;;
22282;SDS011;11310;51.528;21.204;2022-08-01T03:57:57;4.68;;;1.40;;
22282;SDS011;11310;51.528;21.204;2022-08-01T04:00:36;5.57;;;1.85;;
22282;SDS011;11310;51.528;21.204;2022-08-01T04:03:11;4.32;;;1.50;;
22282;SDS011;11310;51.528;21.204;2022-08-01T04:05:41;9.48;;;1.80;;
22282;SDS011;11310;51.528;21.204;2022-08-01T04:08:12;3.85;;;1.73;;
22282;SDS011;11310;51.528;21.204;2022-08-01T04:10:42;5.63;;;2.03;;
22282;SDS011;11310;51.528;21.204;2022-08-01T04:13:11;4.70;;;1.95;;
22282;SDS011;11310;51.528;21.204;2022-08-01T04:15:41;5.82;;;1.70;;
22282;SDS011;11310;51.528;21.204;2022-08-01T04:18:11;5.85;;;2.03;;
22282;SDS011;11310;51.528;21.204;2022-08-01T04:20:41;10.82;;;2.35;;
22282;SDS011;11310;51.528;21.204;2022-08-01T04:25:46;6.57;;;2.60;;
22282;SDS011;11310;51.528;21.204;2022-08-01T04:28:18;5.45;;;2.50;;
22282;SDS011;11310;51.528;21.204;2022-08-01T04:30:50;6.38;;;2.85;;
22282;SDS011;11310;51.528;21.204;2022-08-01T04:33:29;6.22;;;3.10;;
22282;SDS011;11310;51.528;21.204;2022-08-01T04:35:59;7.80;;;3.17;;
22282;SDS011;11310;51.528;21.204;2022-08-01T04:38:34;9.13;;;3.10;;
22282;SDS011;11310;51.528;21.204;2022-08-01T04:41:06;9.20;;;3.00;;
22282;SDS011;11310;51.528;21.204;2022-08-01T04:43:39;6.18;;;3.35;;
22282;SDS011;11310;51.528;21.204;2022-08-01T04:46:10;6.25;;;3.47;;
22282;SDS011;11310;51.528;21.204;2022-08-01T04:48:44;6.40;;;3.38;;
22282;SDS011;11310;51.528;21.204;2022-08-01T04:51:15;8.35;;;3.70;;
22282;SDS011;11310;51.528;21.204;2022-08-01T04:53:44;6.72;;;3.22;;
22282;SDS011;11310;51.528;21.204;2022-08-01T04:56:14;7.50;;;2.75;;
22282;SDS011;11310;51.528;21.204;2022-08-01T04:58:43;8.88;;;3.47;;
22282;SDS011;11310;51.528;21.204;2022-08-01T05:01:15;7.85;;;3.20;;
22282;SDS011;11310;51.528;21.204;2022-08-01T05:03:48;9.38;;;3.50;;
22282;SDS011;11310;51.528;21.204;2022-08-01T05:06:19;5.60;;;3.30;;
22282;SDS011;11310;51.528;21.204;2022-08-01T05:08:49;7.40;;;3.33;;
22282;SDS011;11310;51.528;21.204;2022-08-01T05:11:17;6.07;;;3.40;;
22282;SDS011;11310;51.528;21.204;2022-08-01T05:13:48;7.65;;;3.60;;
22282;SDS011;11310;51.528;21.204;2022-08-01T05:16:18;6.13;;;3.22;;
22282;SDS011;11310;51.528;21.204;2022-08-01T05:21:20;5.60;;;3.40;;
22282;SDS011;11310;51.528;21.204;2022-08-01T05:23:51;6.15;;;3.70;;
22282;SDS011;11310;51.528;21.204;2022-08-01T05:26:22;8.23;;;3.75;;
22282;SDS011;11310;51.528;21.204;2022-08-01T05:28:52;9.02;;;3.85;;
22282;SDS011;11310;51.528;21.204;2022-08-01T05:31:20;6.97;;;4.35;;
22282;SDS011;11310;51.528;21.204;2022-08-01T05:33:49;7.43;;;4.38;;
22282;SDS011;11310;51.528;21.204;2022-08-01T05:36:19;6.97;;;3.83;;
22282;SDS011;11310;51.528;21.204;2022-08-01T05:38:48;6.43;;;3.78;;
22282;SDS011;11310;51.528;21.204;2022-08-01T05:41:17;7.97;;;3.83;;
22282;SDS011;11310;51.528;21.204;2022-08-01T05:43:47;7.38;;;3.80;;
22282;SDS011;11310;51.528;21.204;2022-08-01T05:46:15;8.77;;;3.80;;
22282;SDS011;11310;51.528;21.204;2022-08-01T05:48:44;6.78;;;3.35;;
22282;SDS011;11310;51.528;21.204;2022-08-01T05:51:12;7.97;;;3.50;;
22282;SDS011;11310;51.528;21.204;2022-08-01T05:53:42;6.45;;;3.50;;
22282;SDS011;11310;51.528;21.204;2022-08-01T05:56:11;6.95;;;3.72;;
22282;SDS011;11310;51.528;21.204;2022-08-01T05:58:40;7.10;;;3.47;;
22282;SDS011;11310;51.528;21.204;2022-08-01T06:01:08;8.57;;;3.50;;
22282;SDS011;11310;51.528;21.204;2022-08-01T06:03:37;7.63;;;3.47;;
22282;SDS011;11310;51.528;21.204;2022-08-01T06:06:06;7.47;;;3.20;;
22282;SDS011;11310;51.528;21.204;2022-08-01T06:08:35;4.47;;;2.95;;
22282;SDS011;11310;51.528;21.204;2022-08-01T06:11:06;6.20;;;3.05;;
22282;SDS011;11310;51.528;21.204;2022-08-01T06:13:35;8.75;;;3.10;;
22282;SDS011;11310;51.528;21.204;2022-08-01T06:16:14;6.53;;;3.42;;
22282;SDS011;11310;51.528;21.204;2022-08-01T06:18:47;4.97;;;3.22;;
22282;SDS011;11310;51.528;21.204;2022-08-01T06:21:22;8.70;;;2.58;;
22282;SDS011;11310;51.528;21.204;2022-08-01T06:23:51;6.43;;;2.50;;
22282;SDS011;11310;51.528;21.204;2022-08-01T06:26:21;3.97;;;2.30;;
22282;SDS011;11310;51.528;21.204;2022-08-01T06:28:50;4.15;;;2.30;;
22282;SDS011;11310;51.528;21.204;2022-08-01T06:31:19;4.00;;;2.13;;
22282;SDS011;11310;51.528;21.204;2022-08-01T06:33:47;4.20;;;2.03;;
22282;SDS011;11310;51.528;21.204;2022-08-01T06:36:16;4.55;;;1.90;;
22282;SDS011;11310;51.528;21.204;2022-08-01T06:38:46;4.43;;;2.08;;
22282;SDS011;11310;51.528;21.204;2022-08-01T06:41:14;3.30;;;1.67;;
22282;SDS011;11310;51.528;21.204;2022-08-01T06:43:44;4.60;;;2.30;;
22282;SDS011;11310;51.528;21.204;2022-08-01T06:46:13;4.68;;;1.90;;
22282;SDS011;11310;51.528;21.204;2022-08-01T06:48:42;3.50;;;2.00;;
22282;SDS011;11310;51.528;21.204;2022-08-01T06:51:12;4.10;;;2.00;;
22282;SDS011;11310;51.528;21.204;2022-08-01T06:53:44;3.20;;;1.85;;
22282;SDS011;11310;51.528;21.204;2022-08-01T06:56:13;4.03;;;1.70;;
22282;SDS011;11310;51.528;21.204;2022-08-01T06:58:41;3.25;;;1.85;;
22282;SDS011;11310;51.528;21.204;2022-08-01T07:01:12;3.75;;;2.08;;
22282;SDS011;11310;51.528;21.204;2022-08-01T07:03:42;2.85;;;1.75;;
22282;SDS011;11310;51.528;21.204;2022-08-01T07:06:21;4.10;;;1.58;;
22282;SDS011;11310;51.528;21.204;2022-08-01T07:08:52;4.50;;;1.60;;
22282;SDS011;11310;51.528;21.204;2022-08-01T07:11:21;5.82;;;2.10;;
22282;SDS011;11310;51.528;21.204;2022-08-01T07:13:51;3.53;;;1.70;;
22282;SDS011;11310;51.528;21.204;2022-08-01T07:16:22;3.10;;;1.52;;
22282;SDS011;11310;51.528;21.204;2022-08-01T07:18:51;4.57;;;1.52;;
22282;SDS011;11310;51.528;21.204;2022-08-01T07:21:20;4.65;;;1.63;;
22282;SDS011;11310;51.528;21.204;2022-08-01T07:24:07;4.03;;;1.38;;
22282;SDS011;11310;51.528;21.204;2022-08-01T07:26:40;4.80;;;1.42;;
22282;SDS011;11310;51.528;21.204;2022-08-01T07:29:21;4.53;;;1.75;;
22282;SDS011;11310;51.528;21.204;2022-08-01T07:31:52;3.83;;;1.50;;
22282;SDS011;11310;51.528;21.204;2022-08-01T07:36:52;2.90;;;1.63;;
22282;SDS011;11310;51.528;21.204;2022-08-01T07:39:21;5.03;;;1.55;;
22282;SDS011;11310;51.528;21.204;2022-08-01T07:41:50;4.20;;;1.33;;
22282;SDS011;11310;51.528;21.204;2022-08-01T07:44:39;3.33;;;1.38;;
22282;SDS011;11310;51.528;21.204;2022-08-01T07:47:10;3.92;;;1.30;;
22282;SDS011;11310;51.528;21.204;2022-08-01T07:49:39;3.08;;;1.23;;
22282;SDS011;11310;51.528;21.204;2022-08-01T07:52:08;3.58;;;1.40;;
22282;SDS011;11310;51.528;21.204;2022-08-01T07:54:37;3.00;;;1.60;;
22282;SDS011;11310;51.528;21.204;2022-08-01T07:57:08;5.35;;;1.33;;
22282;SDS011;11310;51.528;21.204;2022-08-01T07:59:37;7.20;;;1.40;;
22282;SDS011;11310;51.528;21.204;2022-08-01T08:02:06;2.70;;;1.55;;
22282;SDS011;11310;51.528;21.204;2022-08-01T08:04:37;3.75;;;1.58;;
22282;SDS011;11310;51.528;21.204;2022-08-01T08:07:14;5.18;;;1.30;;
22282;SDS011;11310;51.528;21.204;2022-08-01T08:09:43;4.72;;;1.63;;
22282;SDS011;11310;51.528;21.204;2022-08-01T08:12:17;7.22;;;1.60;;
22282;SDS011;11310;51.528;21.204;2022-08-01T08:14:55;5.47;;;1.48;;
22282;SDS011;11310;51.528;21.204;2022-08-01T08:17:25;1.60;;;1.27;;
22282;SDS011;11310;51.528;21.204;2022-08-01T08:20:03;4.47;;;1.58;;
22282;SDS011;11310;51.528;21.204;2022-08-01T08:22:36;3.45;;;1.35;;
22282;SDS011;11310;51.528;21.204;2022-08-01T08:25:05;2.38;;;1.58;;
22282;SDS011;11310;51.528;21.204;2022-08-01T08:27:38;2.50;;;1.52;;
22282;SDS011;11310;51.528;21.204;2022-08-01T08:30:07;2.38;;;1.52;;
22282;SDS011;11310;51.528;21.204;2022-08-01T08:32:38;2.55;;;1.80;;
22282;SDS011;11310;51.528;21.204;2022-08-01T08:35:09;2.80;;;1.45;;
22282;SDS011;11310;51.528;21.204;2022-08-01T08:37:43;4.95;;;1.67;;
22282;SDS011;11310;51.528;21.204;2022-08-01T08:40:15;5.00;;;1.80;;
22282;SDS011;11310;51.528;21.204;2022-08-01T08:42:48;2.88;;;1.80;;
22282;SDS011;11310;51.528;21.204;2022-08-01T08:45:17;2.88;;;1.80;;
22282;SDS011;11310;51.528;21.204;2022-08-01T08:48:07;2.85;;;1.83;;
22282;SDS011;11310;51.528;21.204;2022-08-01T08:50:38;4.82;;;2.00;;
22282;SDS011;11310;51.528;21.204;2022-08-01T08:53:10;2.88;;;1.83;;
22282;SDS011;11310;51.528;21.204;2022-08-01T08:55:44;3.08;;;1.85;;
22282;SDS011;11310;51.528;21.204;2022-08-01T08:58:22;3.53;;;1.63;;
22282;SDS011;11310;51.528;21.204;2022-08-01T09:00:57;3.15;;;1.95;;
22282;SDS011;11310;51.528;21.204;2022-08-01T09:03:27;3.58;;;1.80;;
22282;SDS011;11310;51.528;21.204;2022-08-01T09:05:58;4.82;;;1.77;;
22282;SDS011;11310;51.528;21.204;2022-08-01T09:08:27;3.63;;;1.63;;
22282;SDS011;11310;51.528;21.204;2022-08-01T09:10:55;4.63;;;1.77;;
22282;SDS011;11310;51.528;21.204;2022-08-01T09:13:25;1.98;;;1.63;;
22282;SDS011;11310;51.528;21.204;2022-08-01T09:15:55;7.07;;;1.50;;
22282;SDS011;11310;51.528;21.204;2022-08-01T09:18:30;3.25;;;1.85;;
22282;SDS011;11310;51.528;21.204;2022-08-01T09:21:09;2.55;;;1.60;;
22282;SDS011;11310;51.528;21.204;2022-08-01T09:23:40;2.78;;;1.50;;
22282;SDS011;11310;51.528;21.204;2022-08-01T09:26:21;4.80;;;1.73;;
22282;SDS011;11310;51.528;21.204;2022-08-01T09:28:57;2.20;;;1.55;;
22282;SDS011;11310;51.528;21.204;2022-08-01T09:31:27;4.13;;;1.63;;
22282;SDS011;11310;51.528;21.204;2022-08-01T09:34:04;2.72;;;1.67;;
22282;SDS011;11310;51.528;21.204;2022-08-01T09:36:46;2.63;;;1.50;;
22282;SDS011;11310;51.528;21.204;2022-08-01T09:39:21;3.90;;;1.80;;
22282;SDS011;11310;51.528;21.204;2022-08-01T09:41:52;8.43;;;1.75;;
22282;SDS011;11310;51.528;21.204;2022-08-01T09:44:36;4.05;;;1.52;;
22282;SDS011;11310;51.528;21.204;2022-08-01T09:47:09;1.55;;;1.20;;
22282;SDS011;11310;51.528;21.204;2022-08-01T09:49:42;4.20;;;1.55;;
22282;SDS011;11310;51.528;21.204;2022-08-01T09:52:19;5.30;;;1.38;;
22282;SDS011;11310;51.528;21.204;2022-08-01T09:54:53;3.03;;;1.35;;
22282;SDS011;11310;51.528;21.204;2022-08-01T09:57:24;1.67;;;1.30;;
22282;SDS011;11310;51.528;21.204;2022-08-01T09:59:54;2.35;;;1.80;;
22282;SDS011;11310;51.528;21.204;2022-08-01T10:02:28;3.17;;;1.58;;
22282;SDS011;11310;51.528;21.204;2022-08-01T10:05:02;4.72;;;1.70;;
22282;SDS011;11310;51.528;21.204;2022-08-01T10:07:36;2.42;;;1.63;;
22282;SDS011;11310;51.528;21.204;2022-08-01T10:10:24;4.30;;;1.75;;
22282;SDS011;11310;51.528;21.204;2022-08-01T10:12:55;3.25;;;1.92;;
22282;SDS011;11310;51.528;21.204;2022-08-01T10:15:25;4.78;;;2.00;;
22282;SDS011;11310;51.528;21.204;2022-08-01T10:18:05;2.67;;;1.50;;
22282;SDS011;11310;51.528;21.204;2022-08-01T10:20:52;3.08;;;1.83;;
22282;SDS011;11310;51.528;21.204;2022-08-01T10:23:25;4.57;;;1.75;;
22282;SDS011;11310;51.528;21.204;2022-08-01T10:26:07;3.15;;;1.30;;
22282;SDS011;11310;51.528;21.204;2022-08-01T10:31:07;2.95;;;1.40;;
22282;SDS011;11310;51.528;21.204;2022-08-01T10:33:39;3.15;;;1.38;;
22282;SDS011;11310;51.528;21.204;2022-08-01T10:36:20;4.70;;;1.45;;
22282;SDS011;11310;51.528;21.204;2022-08-01T10:38:53;3.58;;;1.10;;
22282;SDS011;11310;51.528;21.204;2022-08-01T10:41:23;6.45;;;1.60;;
22282;SDS011;11310;51.528;21.204;2022-08-01T10:43:53;4.60;;;1.58;;
22282;SDS011;11310;51.528;21.204;2022-08-01T10:46:22;5.50;;;1.95;;
22282;SDS011;11310;51.528;21.204;2022-08-01T10:48:54;4.63;;;1.30;;
22282;SDS011;11310;51.528;21.204;2022-08-01T10:51:27;3.08;;;1.20;;
22282;SDS011;11310;51.528;21.204;2022-08-01T10:54:18;3.67;;;1.48;;
22282;SDS011;11310;51.528;21.204;2022-08-01T10:56:51;2.45;;;1.20;;
22282;SDS011;11310;51.528;21.204;2022-08-01T10:59:24;4.40;;;1.30;;
22282;SDS011;11310;51.528;21.204;2022-08-01T11:02:17;3.55;;;1.35;;
22282;SDS011;11310;51.528;21.204;2022-08-01T11:05:00;2.95;;;1.08;;
22282;SDS011;11310;51.528;21.204;2022-08-01T11:07:37;2.85;;;1.00;;
22282;SDS011;11310;51.528;21.204;2022-08-01T11:10:24;6.22;;;0.98;;
22282;SDS011;11310;51.528;21.204;2022-08-01T11:12:59;5.38;;;1.20;;
22282;SDS011;11310;51.528;21.204;2022-08-01T11:15:31;2.08;;;1.30;;
22282;SDS011;11310;51.528;21.204;2022-08-01T11:18:00;1.95;;;1.25;;
22282;SDS011;11310;51.528;21.204;2022-08-01T11:20:31;2.60;;;1.13;;
22282;SDS011;11310;51.528;21.204;2022-08-01T11:23:18;3.78;;;1.08;;
22282;SDS011;11310;51.528;21.204;2022-08-01T11:26:10;2.05;;;1.17;;
22282;SDS011;11310;51.528;21.204;2022-08-01T11:28:44;3.17;;;1.58;;
22282;SDS011;11310;51.528;21.204;2022-08-01T11:31:34;2.47;;;1.40;;
22282;SDS011;11310;51.528;21.204;2022-08-01T11:34:04;2.50;;;1.17;;
22282;SDS011;11310;51.528;21.204;2022-08-01T11:36:33;2.22;;;1.30;;
22282;SDS011;11310;51.528;21.204;2022-08-01T11:39:22;4.30;;;1.60;;
22282;SDS011;11310;51.528;21.204;2022-08-01T11:41:53;5.22;;;2.10;;
22282;SDS011;11310;51.528;21.204;2022-08-01T11:46:58;2.00;;;1.20;;
22282;SDS011;11310;51.528;21.204;2022-08-01T11:49:46;2.25;;;1.00;;
22282;SDS011;11310;51.528;21.204;2022-08-01T11:52:18;1.50;;;1.00;;
22282;SDS011;11310;51.528;21.204;2022-08-01T11:54:53;6.78;;;1.40;;
22282;SDS011;11310;51.528;21.204;2022-08-01T11:57:28;1.17;;;0.95;;
22282;SDS011;11310;51.528;21.204;2022-08-01T12:00:03;2.38;;;1.27;;
22282;SDS011;11310;51.528;21.204;2022-08-01T12:02:43;3.17;;;1.40;;
22282;SDS011;11310;51.528;21.204;2022-08-01T12:05:16;1.73;;;1.15;;
22282;SDS011;11310;51.528;21.204;2022-08-01T12:07:52;3.13;;;1.23;;
22282;SDS011;11310;51.528;21.204;2022-08-01T12:10:22;3.15;;;1.13;;
22282;SDS011;11310;51.528;21.204;2022-08-01T12:12:55;4.88;;;1.25;;
22282;SDS011;11310;51.528;21.204;2022-08-01T12:15:29;1.85;;;1.00;;
22282;SDS011;11310;51.528;21.204;2022-08-01T12:20:30;2.08;;;1.02;;
22282;SDS011;11310;51.528;21.204;2022-08-01T12:23:00;2.78;;;1.17;;
22282;SDS011;11310;51.528;21.204;2022-08-01T12:25:36;2.08;;;1.20;;
22282;SDS011;11310;51.528;21.204;2022-08-01T12:28:11;1.80;;;1.20;;
22282;SDS011;11310;51.528;21.204;2022-08-01T12:30:41;3.78;;;1.10;;
22282;SDS011;11310;51.528;21.204;2022-08-01T12:33:16;4.80;;;1.15;;
22282;SDS011;11310;51.528;21.204;2022-08-01T12:35:47;2.58;;;0.95;;
22282;SDS011;11310;51.528;21.204;2022-08-01T12:38:16;2.83;;;0.95;;
22282;SDS011;11310;51.528;21.204;2022-08-01T12:40:46;2.72;;;1.20;;
22282;SDS011;11310;51.528;21.204;2022-08-01T12:43:21;1.95;;;1.15;;
22282;SDS011;11310;51.528;21.204;2022-08-01T12:45:55;2.28;;;1.00;;
22282;SDS011;11310;51.528;21.204;2022-08-01T12:48:27;3.30;;;1.30;;
22282;SDS011;11310;51.528;21.204;2022-08-01T12:51:00;8.45;;;1.40;;
22282;SDS011;11310;51.528;21.204;2022-08-01T12:53:33;3.45;;;1.05;;
22282;SDS011;11310;51.528;21.204;2022-08-01T12:56:07;8.23;;;1.20;;
22282;SDS011;11310;51.528;21.204;2022-08-01T12:58:39;4.82;;;1.02;;
22282;SDS011;11310;51.528;21.204;2022-08-01T13:01:08;1.73;;;0.98;;
22282;SDS011;11310;51.528;21.204;2022-08-01T13:03:39;2.25;;;1.00;;
22282;SDS011;11310;51.528;21.204;2022-08-01T13:06:12;2.60;;;1.05;;
22282;SDS011;11310;51.528;21.204;2022-08-01T13:08:44;4.25;;;1.10;;
22282;SDS011;11310;51.528;21.204;2022-08-01T13:11:14;1.77;;;1.40;;
22282;SDS011;11310;51.528;21.204;2022-08-01T13:13:46;4.28;;;1.30;;
22282;SDS011;11310;51.528;21.204;2022-08-01T13:16:17;4.63;;;1.17;;
22282;SDS011;11310;51.528;21.204;2022-08-01T13:19:05;3.38;;;1.17;;
22282;SDS011;11310;51.528;21.204;2022-08-01T13:21:34;4.72;;;1.27;;
22282;SDS011;11310;51.528;21.204;2022-08-01T13:24:23;2.30;;;1.15;;
22282;SDS011;11310;51.528;21.204;2022-08-01T13:26:57;2.28;;;1.10;;
22282;SDS011;11310;51.528;21.204;2022-08-01T13:32:13;2.28;;;0.90;;
22282;SDS011;11310;51.528;21.204;2022-08-01T13:35:00;1.98;;;1.10;;
22282;SDS011;11310;51.528;21.204;2022-08-01T13:37:34;3.50;;;0.90;;
22282;SDS011;11310;51.528;21.204;2022-08-01T13:40:05;2.75;;;1.48;;
22282;SDS011;11310;51.528;21.204;2022-08-01T13:45:12;5.20;;;1.00;;
22282;SDS011;11310;51.528;21.204;2022-08-01T13:47:45;2.50;;;1.15;;
22282;SDS011;11310;51.528;21.204;2022-08-01T13:50:35;5.88;;;0.93;;
22282;SDS011;11310;51.528;21.204;2022-08-01T13:53:05;2.78;;;0.90;;
22282;SDS011;11310;51.528;21.204;2022-08-01T13:55:38;4.20;;;1.25;;
22282;SDS011;11310;51.528;21.204;2022-08-01T13:58:08;1.58;;;1.20;;
22282;SDS011;11310;51.528;21.204;2022-08-01T14:00:38;5.53;;;1.60;;
22282;SDS011;11310;51.528;21.204;2022-08-01T14:03:11;2.50;;;1.10;;
22282;SDS011;11310;51.528;21.204;2022-08-01T14:05:46;5.95;;;1.25;;
22282;SDS011;11310;51.528;21.204;2022-08-01T14:08:24;1.83;;;1.10;;
22282;SDS011;11310;51.528;21.204;2022-08-01T14:10:54;1.73;;;1.13;;
22282;SDS011;11310;51.528;21.204;2022-08-01T14:13:26;2.08;;;1.20;;
22282;SDS011;11310;51.528;21.204;2022-08-01T14:16:06;2.65;;;1.15;;
22282;SDS011;11310;51.528;21.204;2022-08-01T14:18:36;3.10;;;1.33;;
22282;SDS011;11310;51.528;21.204;2022-08-01T14:21:05;2.28;;;1.05;;
22282;SDS011;11310;51.528;21.204;2022-08-01T14:23:42;2.63;;;1.13;;
22282;SDS011;11310;51.528;21.204;2022-08-01T14:26:13;2.17;;;1.30;;
22282;SDS011;11310;51.528;21.204;2022-08-01T14:28:42;4.30;;;1.50;;
22282;SDS011;11310;51.528;21.204;2022-08-01T14:31:13;4.28;;;1.35;;
22282;SDS011;11310;51.528;21.204;2022-08-01T14:33:41;3.35;;;1.40;;
22282;SDS011;11310;51.528;21.204;2022-08-01T14:36:12;3.42;;;1.30;;
22282;SDS011;11310;51.528;21.204;2022-08-01T14:38:58;2.60;;;1.17;;
22282;SDS011;11310;51.528;21.204;2022-08-01T14:41:28;2.80;;;1.10;;
22282;SDS011;11310;51.528;21.204;2022-08-01T14:44:02;3.65;;;1.25;;
22282;SDS011;11310;51.528;21.204;2022-08-01T14:46:33;3.70;;;1.48;;
22282;SDS011;11310;51.528;21.204;2022-08-01T14:49:07;4.32;;;1.15;;
22282;SDS011;11310;51.528;21.204;2022-08-01T14:51:37;2.25;;;1.15;;
22282;SDS011;11310;51.528;21.204;2022-08-01T14:54:05;4.35;;;1.50;;
22282;SDS011;11310;51.528;21.204;2022-08-01T14:56:35;2.63;;;1.00;;
22282;SDS011;11310;51.528;21.204;2022-08-01T14:59:04;6.15;;;1.10;;
22282;SDS011;11310;51.528;21.204;2022-08-01T15:01:49;7.15;;;1.48;;
22282;SDS011;11310;51.528;21.204;2022-08-01T15:04:18;5.30;;;1.35;;
22282;SDS011;11310;51.528;21.204;2022-08-01T15:06:47;8.05;;;1.60;;
22282;SDS011;11310;51.528;21.204;2022-08-01T15:09:17;1.50;;;1.17;;
22282;SDS011;11310;51.528;21.204;2022-08-01T15:11:49;4.88;;;1.50;;
22282;SDS011;11310;51.528;21.204;2022-08-01T15:14:18;6.53;;;1.58;;
22282;SDS011;11310;51.528;21.204;2022-08-01T15:17:06;2.20;;;1.17;;
22282;SDS011;11310;51.528;21.204;2022-08-01T15:19:35;5.07;;;1.20;;
22282;SDS011;11310;51.528;21.204;2022-08-01T15:22:08;5.00;;;1.27;;
22282;SDS011;11310;51.528;21.204;2022-08-01T15:24:37;4.05;;;1.80;;
22282;SDS011;11310;51.528;21.204;2022-08-01T15:27:05;3.33;;;1.25;;
22282;SDS011;11310;51.528;21.204;2022-08-01T15:29:34;2.95;;;1.17;;
22282;SDS011;11310;51.528;21.204;2022-08-01T15:32:06;2.53;;;1.52;;
22282;SDS011;11310;51.528;21.204;2022-08-01T15:34:36;1.92;;;1.42;;
22282;SDS011;11310;51.528;21.204;2022-08-01T15:37:06;3.00;;;1.50;;
22282;SDS011;11310;51.528;21.204;2022-08-01T15:39:35;3.65;;;1.42;;
22282;SDS011;11310;51.528;21.204;2022-08-01T15:42:05;4.57;;;1.20;;
22282;SDS011;11310;51.528;21.204;2022-08-01T15:44:36;4.13;;;1.27;;